createdAt,value
2018-07-20T00:00:21.789Z,81.40
2018-07-20T00:02:50.364Z,81.50
2018-07-20T00:05:18.980Z,82.00
2018-07-20T00:07:47.620Z,82.10
2018-07-20T00:10:16.350Z,82.10
2018-07-20T00:12:51.193Z,82.00
2018-07-20T00:15:19.844Z,81.90
2018-07-20T00:17:48.525Z,81.90
2018-07-20T00:20:17.203Z,81.70
2018-07-20T00:22:45.860Z,82.20
2018-07-20T00:25:14.539Z,81.60
2018-07-20T00:27:43.147Z,81.50
2018-07-20T00:30:11.788Z,81.40
2018-07-20T00:32:40.486Z,81.90
2018-07-20T00:35:09.264Z,81.70
2018-07-20T00:37:37.969Z,82.00
2018-07-20T00:40:06.604Z,81.50
2018-07-20T00:42:35.321Z,81.70
2018-07-20T00:45:04.048Z,81.50
2018-07-20T00:47:32.681Z,82.00
2018-07-20T00:50:01.345Z,81.90
2018-07-20T00:52:29.946Z,81.70
2018-07-20T00:54:58.678Z,82.10
2018-07-20T00:57:27.329Z,82.30
2018-07-20T00:59:56.078Z,82.20
2018-07-20T01:02:24.697Z,82.30
2018-07-20T01:04:53.399Z,82.20
2018-07-20T01:07:22.008Z,82.20
2018-07-20T01:09:50.770Z,82.10
2018-07-20T01:12:19.444Z,81.90
2018-07-20T01:14:48.119Z,81.60
2018-07-20T01:17:16.792Z,81.60
2018-07-20T01:19:45.413Z,82.20
2018-07-20T01:22:14.070Z,82.50
2018-07-20T01:24:42.716Z,82.70
2018-07-20T01:27:11.698Z,82.80
2018-07-20T01:29:40.413Z,83.20
2018-07-20T01:32:09.082Z,83.40
2018-07-20T01:34:37.784Z,83.20
2018-07-20T01:37:06.486Z,83.00
2018-07-20T01:39:35.179Z,83.20
2018-07-20T01:42:03.801Z,83.10
2018-07-20T01:44:32.705Z,83.20
2018-07-20T01:47:01.367Z,83.00
2018-07-20T01:49:30.034Z,83.50
2018-07-20T01:51:58.729Z,83.50
2018-07-20T01:54:27.425Z,83.60
2018-07-20T01:56:56.174Z,83.70
2018-07-20T01:59:24.947Z,84.10
2018-07-20T02:01:53.669Z,84.00
2018-07-20T02:04:22.281Z,83.80
2018-07-20T02:06:50.889Z,84.00
2018-07-20T02:09:19.614Z,84.10
2018-07-20T02:11:48.274Z,84.30
2018-07-20T02:14:17.050Z,84.20
2018-07-20T02:16:47.103Z,84.30
2018-07-20T02:19:15.812Z,84.80
2018-07-20T02:21:44.565Z,84.60
2018-07-20T02:24:13.248Z,84.90
2018-07-20T02:26:41.996Z,85.20
2018-07-20T02:29:10.610Z,85.10
2018-07-20T02:31:39.418Z,85.30
2018-07-20T02:34:08.367Z,85.10
2018-07-20T02:36:37.104Z,85.30
2018-07-20T02:39:09.151Z,85.30
2018-07-20T02:41:37.965Z,85.50
2018-07-20T02:44:07.011Z,85.60
2018-07-20T02:46:35.829Z,85.80
2018-07-20T02:49:04.610Z,85.80
2018-07-20T02:51:33.370Z,86.00
2018-07-20T02:54:02.084Z,86.40
2018-07-20T02:56:30.896Z,86.50
2018-07-20T02:58:59.545Z,86.50
2018-07-20T03:01:28.359Z,86.60
2018-07-20T03:03:57.019Z,86.50
2018-07-20T03:06:25.616Z,86.90
2018-07-20T03:08:54.305Z,87.10
2018-07-20T03:11:22.966Z,87.00
2018-07-20T03:13:51.678Z,86.90
2018-07-20T03:16:20.359Z,86.90
2018-07-20T03:18:49.062Z,86.90
2018-07-20T03:21:17.727Z,87.00
2018-07-20T03:23:46.341Z,87.10
2018-07-20T03:26:15.005Z,87.00
2018-07-20T03:28:43.717Z,86.80
2018-07-20T03:31:35.754Z,86.60
2018-07-20T03:34:04.399Z,86.90
2018-07-20T03:36:33.078Z,86.70
2018-07-20T03:39:01.759Z,86.80
2018-07-20T03:41:30.429Z,87.00
2018-07-20T03:43:59.189Z,87.30
2018-07-20T03:46:27.861Z,87.90
2018-07-20T03:48:56.592Z,87.80
2018-07-20T03:51:25.264Z,87.20
2018-07-20T03:53:53.898Z,87.40
2018-07-20T03:56:22.634Z,87.30
2018-07-20T03:58:51.332Z,87.40
2018-07-20T04:01:20.096Z,87.60
2018-07-20T04:03:48.845Z,87.90
2018-07-20T04:06:19.272Z,87.80
2018-07-20T04:08:48.086Z,87.80
2018-07-20T04:11:16.766Z,87.80
2018-07-20T04:13:45.479Z,87.60
2018-07-20T04:16:14.157Z,88.00
2018-07-20T04:18:42.874Z,87.90
2018-07-20T04:21:11.601Z,88.00
2018-07-20T04:23:40.439Z,88.10
2018-07-20T04:26:09.090Z,88.20
2018-07-20T04:28:37.787Z,88.10
2018-07-20T04:31:06.897Z,87.90
2018-07-20T04:33:35.576Z,87.40
2018-07-20T04:36:04.352Z,87.40
2018-07-20T04:38:33.033Z,87.60
2018-07-20T04:41:01.829Z,87.60
2018-07-20T04:43:30.580Z,88.00
2018-07-20T04:45:59.265Z,87.70
2018-07-20T04:48:27.962Z,87.40
2018-07-20T04:50:56.705Z,87.20
2018-07-20T04:53:25.437Z,87.20
2018-07-20T04:55:54.146Z,87.20
2018-07-20T04:58:22.789Z,87.10
2018-07-20T05:00:51.423Z,86.70
2018-07-20T05:03:20.046Z,86.60
2018-07-20T05:05:52.117Z,86.40
2018-07-20T05:08:20.782Z,86.30
2018-07-20T05:10:49.521Z,86.20
2018-07-20T05:13:18.457Z,85.90
2018-07-20T05:15:47.236Z,85.60
2018-07-20T05:18:15.973Z,85.40
2018-07-20T05:20:44.655Z,85.40
2018-07-20T05:23:13.350Z,85.40
2018-07-20T05:25:42.041Z,85.60
2018-07-20T05:28:10.692Z,85.60
2018-07-20T05:30:39.433Z,85.10
2018-07-20T05:33:08.109Z,84.80
2018-07-20T05:35:36.866Z,84.60
2018-07-20T05:38:05.692Z,84.60
2018-07-20T05:40:34.462Z,84.80
2018-07-20T05:43:03.150Z,84.90
2018-07-20T05:45:31.896Z,84.60
2018-07-20T05:48:00.606Z,85.00
2018-07-20T05:50:29.299Z,84.50
2018-07-20T05:52:58.043Z,84.80
2018-07-20T05:55:28.893Z,84.10
2018-07-20T05:57:57.608Z,84.00
2018-07-20T06:00:26.241Z,83.90
2018-07-20T06:02:54.933Z,83.70
2018-07-20T06:05:23.570Z,83.00
2018-07-20T06:07:52.315Z,82.80
2018-07-20T06:10:20.951Z,83.00
2018-07-20T06:12:49.581Z,83.50
2018-07-20T06:15:18.467Z,83.20
2018-07-20T06:17:47.378Z,83.20
2018-07-20T06:20:16.137Z,82.60
2018-07-20T06:22:44.852Z,82.50
2018-07-20T06:25:13.742Z,82.70
2018-07-20T06:27:42.370Z,82.50
2018-07-20T06:30:11.097Z,82.40
2018-07-20T06:32:39.718Z,81.40
2018-07-20T06:35:16.726Z,81.00
2018-07-20T06:37:45.353Z,80.70
2018-07-20T06:40:14.252Z,80.70
2018-07-20T06:42:42.958Z,80.70
2018-07-20T06:45:11.542Z,79.90
2018-07-20T06:47:40.217Z,79.60
2018-07-20T06:50:13.975Z,79.60
2018-07-20T06:52:47.203Z,79.60
2018-07-20T06:55:15.814Z,79.60
2018-07-20T06:57:44.670Z,79.30
2018-07-20T07:00:13.310Z,77.60
2018-07-20T07:02:42.130Z,76.20
2018-07-20T07:05:11.918Z,76.40
2018-07-20T07:07:40.693Z,75.40
2018-07-20T07:10:09.922Z,75.50
2018-07-20T07:12:39.225Z,74.60
2018-07-20T07:15:07.838Z,74.30
2018-07-20T07:17:36.530Z,74.30
2018-07-20T07:20:05.420Z,74.20
2018-07-20T07:22:34.106Z,74.80
2018-07-20T07:25:02.869Z,75.10
2018-07-20T07:27:31.572Z,74.90
2018-07-20T07:30:00.222Z,73.90
2018-07-20T07:32:29.021Z,73.20
2018-07-20T07:34:57.919Z,72.10
2018-07-20T07:37:26.621Z,71.30
2018-07-20T07:39:55.256Z,68.60
2018-07-20T07:42:24.023Z,66.70
2018-07-20T07:44:52.715Z,67.00
2018-07-20T07:47:21.443Z,67.40
2018-07-20T07:49:50.323Z,67.00
2018-07-20T07:52:18.947Z,65.70
2018-07-20T07:54:47.666Z,65.90
2018-07-20T07:57:16.258Z,65.00
2018-07-20T07:59:44.911Z,66.00
2018-07-20T08:02:13.525Z,64.80
2018-07-20T08:04:42.168Z,63.80
2018-07-20T08:07:10.962Z,62.50
2018-07-20T08:09:39.807Z,62.40
2018-07-20T08:12:09.129Z,62.90
2018-07-20T08:14:37.818Z,61.20
2018-07-20T08:17:06.554Z,61.00
2018-07-20T08:19:35.225Z,63.00
2018-07-20T08:22:03.914Z,62.60
2018-07-20T08:24:32.545Z,62.50
2018-07-20T08:27:01.187Z,61.00
2018-07-20T08:29:29.864Z,60.10
2018-07-20T08:31:58.409Z,59.30
2018-07-20T08:34:27.046Z,57.90
2018-07-20T08:36:55.710Z,59.00
2018-07-20T08:39:24.511Z,60.00
2018-07-20T08:41:53.141Z,59.20
2018-07-20T08:44:22.141Z,57.90
2018-07-20T08:46:50.748Z,57.00
2018-07-20T08:49:19.745Z,56.80
2018-07-20T08:51:48.310Z,58.20
2018-07-20T08:54:16.931Z,57.50
2018-07-20T08:56:45.603Z,57.50
2018-07-20T08:59:14.317Z,54.80
2018-07-20T09:01:42.954Z,54.60
2018-07-20T09:04:11.677Z,54.40
2018-07-20T09:06:40.341Z,54.20
2018-07-20T09:09:09.734Z,55.20
2018-07-20T09:11:38.544Z,56.70
2018-07-20T09:14:08.129Z,57.50
2018-07-20T09:16:36.697Z,56.20
2018-07-20T09:19:05.297Z,54.30
2018-07-20T09:21:40.866Z,54.20
2018-07-20T09:24:09.554Z,55.00
2018-07-20T09:26:38.181Z,55.60
2018-07-20T09:29:06.810Z,56.80
2018-07-20T09:31:37.761Z,53.90
2018-07-20T09:34:06.881Z,52.20
2018-07-20T09:36:35.505Z,52.70
2018-07-20T09:39:06.217Z,52.20
2018-07-20T09:41:34.906Z,52.00
2018-07-20T09:44:03.546Z,51.20
2018-07-20T09:46:32.201Z,50.70
2018-07-20T09:49:00.906Z,50.60
2018-07-20T09:51:29.485Z,51.70
2018-07-20T09:53:58.192Z,50.40
2018-07-20T09:56:26.807Z,51.40
2018-07-20T09:58:55.389Z,51.40
2018-07-20T10:01:24.258Z,50.20
2018-07-20T10:03:52.893Z,49.80
2018-07-20T10:06:21.525Z,48.80
2018-07-20T10:08:50.282Z,48.50
2018-07-20T10:11:18.872Z,48.10
2018-07-20T10:13:47.513Z,50.70
2018-07-20T10:16:16.286Z,52.60
2018-07-20T10:18:44.997Z,50.00
2018-07-20T10:21:13.676Z,48.30
2018-07-20T10:23:42.261Z,48.60
2018-07-20T10:26:11.155Z,49.40
2018-07-20T10:28:39.751Z,48.50
2018-07-20T10:31:08.360Z,48.30
2018-07-20T10:33:36.948Z,48.50
2018-07-20T10:36:05.746Z,47.00
2018-07-20T10:38:34.340Z,45.80
2018-07-20T10:41:02.965Z,47.20
2018-07-20T10:43:31.576Z,46.90
2018-07-20T10:46:00.182Z,46.40
2018-07-20T10:48:28.725Z,47.00
2018-07-20T10:50:57.296Z,47.70
2018-07-20T10:53:25.941Z,45.40
2018-07-20T10:55:54.637Z,44.10
2018-07-20T10:58:23.295Z,44.50
2018-07-20T11:00:51.924Z,45.30
2018-07-20T11:03:20.456Z,45.80
2018-07-20T11:05:49.065Z,46.70
2018-07-20T11:08:19.797Z,49.00
2018-07-20T11:10:48.356Z,47.20
2018-07-20T11:13:16.913Z,44.90
2018-07-20T11:15:45.619Z,44.70
2018-07-20T11:18:15.090Z,46.60
2018-07-20T11:20:44.036Z,47.60
2018-07-20T11:23:12.672Z,47.30
2018-07-20T11:25:41.603Z,47.90
2018-07-20T11:28:10.288Z,45.40
2018-07-20T11:30:38.988Z,47.00
2018-07-20T11:33:10.965Z,48.00
2018-07-20T11:35:39.607Z,45.60
2018-07-20T11:38:08.133Z,48.00
2018-07-20T11:40:36.706Z,48.80
2018-07-20T11:43:05.300Z,46.80
2018-07-20T11:45:36.217Z,45.00
2018-07-20T11:48:04.772Z,44.80
2018-07-20T11:50:39.568Z,46.20
2018-07-20T11:53:08.244Z,44.90
2018-07-20T11:55:36.836Z,47.60
2018-07-20T11:58:05.397Z,48.80
2018-07-20T12:00:34.050Z,46.50
2018-07-20T12:03:02.655Z,44.90
2018-07-20T12:05:31.179Z,45.50
2018-07-20T12:07:59.784Z,47.20
2018-07-20T12:10:28.704Z,46.70
2018-07-20T12:12:57.341Z,46.40
2018-07-20T12:15:39.982Z,45.20
2018-07-20T12:18:08.597Z,45.20
2018-07-20T12:20:37.181Z,47.20
2018-07-20T12:23:05.856Z,47.80
2018-07-20T12:25:34.428Z,45.60
2018-07-20T12:28:03.060Z,44.30
2018-07-20T12:30:31.681Z,44.40
2018-07-20T12:33:00.344Z,45.90
2018-07-20T12:35:29.015Z,44.90
2018-07-20T12:37:57.735Z,45.30
2018-07-20T12:40:26.264Z,45.30
2018-07-20T12:42:54.939Z,47.90
2018-07-20T12:45:23.523Z,47.10
2018-07-20T12:47:52.371Z,47.60
2018-07-20T12:50:21.105Z,47.00
2018-07-20T12:52:49.757Z,44.40
2018-07-20T12:58:16.831Z,46.20
2018-07-20T13:00:45.411Z,45.60
2018-07-20T13:03:14.132Z,45.30
2018-07-20T13:05:44.834Z,47.00
2018-07-20T13:08:13.564Z,46.60
2018-07-20T13:10:45.326Z,46.70
2018-07-20T13:19:06.580Z,47.00
2018-07-20T13:21:45.001Z,45.60
2018-07-20T13:24:13.702Z,45.90
2018-07-20T13:26:42.374Z,46.50
2018-07-20T13:29:11.071Z,45.20
2018-07-20T13:31:39.754Z,46.90
2018-07-20T13:34:08.432Z,44.10
2018-07-20T13:36:37.027Z,44.00
2018-07-20T13:39:08.776Z,42.90
2018-07-20T13:41:37.557Z,43.50
2018-07-20T13:44:06.233Z,45.40
2018-07-20T13:46:34.926Z,42.50
2018-07-20T13:49:03.488Z,43.70
2018-07-20T13:51:34.473Z,43.30
2018-07-20T13:54:03.117Z,41.40
2018-07-20T13:56:31.816Z,39.70
2018-07-20T13:59:00.409Z,40.90
2018-07-20T14:01:29.268Z,40.20
2018-07-20T14:03:57.975Z,40.40
2018-07-20T14:06:27.706Z,42.00
2018-07-20T14:08:56.542Z,43.60
2018-07-20T14:11:25.354Z,43.70
2018-07-20T14:13:54.043Z,44.20
2018-07-20T14:16:24.121Z,44.20
2018-07-20T14:18:53.327Z,45.20
2018-07-20T14:21:22.013Z,45.60
2018-07-20T14:23:50.739Z,44.00
2018-07-20T14:26:19.419Z,44.70
2018-07-20T14:28:48.253Z,44.70
2018-07-20T14:31:17.128Z,44.60
2018-07-20T14:33:46.017Z,45.50
2018-07-20T14:36:14.967Z,45.40
2018-07-20T14:38:43.835Z,46.00
2018-07-20T14:41:12.622Z,47.00
2018-07-20T14:43:41.298Z,48.20
2018-07-20T14:46:10.014Z,46.70
2018-07-20T14:48:58.842Z,47.10
2018-07-20T14:51:27.691Z,47.10
2018-07-20T14:53:56.381Z,46.10
2018-07-20T14:56:25.185Z,47.10
2018-07-20T14:58:53.995Z,45.80
2018-07-20T15:01:22.767Z,45.80
2018-07-20T15:03:51.387Z,46.80
2018-07-20T15:06:20.004Z,47.00
2018-07-20T15:08:48.612Z,48.20
2018-07-20T15:11:17.204Z,48.10
2018-07-20T15:13:45.931Z,48.30
2018-07-20T15:16:14.479Z,46.50
2018-07-20T15:18:43.141Z,46.10
2018-07-20T15:21:11.697Z,47.90
2018-07-20T15:23:40.288Z,48.50
2018-07-20T15:26:08.883Z,49.00
2018-07-20T15:28:37.439Z,48.90
2018-07-20T15:31:06.242Z,49.10
2018-07-20T15:33:34.912Z,49.70
2018-07-20T15:36:03.573Z,49.50
2018-07-20T15:38:32.333Z,50.80
2018-07-20T15:41:00.944Z,51.00
2018-07-20T15:43:29.604Z,50.60
2018-07-20T15:46:05.966Z,51.00
2018-07-20T15:48:27.024Z,50.80
2018-07-20T15:50:55.636Z,50.10
2018-07-20T15:53:39.144Z,48.40
2018-07-20T15:55:52.845Z,49.20
2018-07-20T15:58:21.420Z,48.50
2018-07-20T16:00:49.999Z,49.30
2018-07-20T16:03:18.604Z,49.00
2018-07-20T16:05:47.308Z,48.40
2018-07-20T16:08:15.895Z,49.00
2018-07-20T16:10:44.539Z,48.40
2018-07-20T16:13:13.108Z,47.40
2018-07-20T16:15:41.728Z,48.20
2018-07-20T16:18:10.319Z,48.10
2018-07-20T16:20:39.091Z,46.20
2018-07-20T16:23:07.708Z,47.30
2018-07-20T16:25:36.698Z,46.40
2018-07-20T16:28:05.279Z,46.10
2018-07-20T16:30:34.036Z,45.80
2018-07-20T16:33:02.695Z,45.90
2018-07-20T16:35:31.332Z,46.80
2018-07-20T16:38:00.008Z,44.90
2018-07-20T16:40:33.089Z,45.30
2018-07-20T16:43:01.872Z,44.00
2018-07-20T16:45:30.683Z,45.00
2018-07-20T16:47:59.299Z,45.30
2018-07-20T16:50:27.864Z,44.20
2018-07-20T16:52:57.075Z,44.20
2018-07-20T16:55:25.760Z,44.20
2018-07-20T16:57:54.512Z,44.90
2018-07-20T17:00:23.141Z,45.00
2018-07-20T17:05:53.460Z,47.90
2018-07-20T17:08:22.003Z,45.50
2018-07-20T17:10:50.602Z,45.00
2018-07-20T17:13:19.252Z,45.70
2018-07-20T17:15:47.778Z,46.90
2018-07-20T17:18:16.360Z,48.60
2018-07-20T17:20:45.058Z,47.30
2018-07-20T17:23:13.629Z,47.20
2018-07-20T17:25:42.219Z,48.50
2018-07-20T17:28:10.886Z,50.40
2018-07-20T17:30:39.525Z,49.30
2018-07-20T17:33:15.428Z,49.10
2018-07-20T17:35:49.493Z,49.10
2018-07-20T17:38:18.172Z,49.40
2018-07-20T17:40:46.871Z,50.30
2018-07-20T17:43:15.467Z,50.40
2018-07-20T17:45:44.147Z,51.50
2018-07-20T17:48:13.020Z,52.00
2018-07-20T17:50:41.596Z,51.90
2018-07-20T17:53:10.275Z,51.70
2018-07-20T17:55:39.036Z,52.10
2018-07-20T17:58:07.656Z,55.00
2018-07-20T18:00:36.331Z,56.10
2018-07-20T18:03:05.032Z,56.70
2018-07-20T18:05:33.616Z,56.60
2018-07-20T18:08:02.669Z,56.80
2018-07-20T18:10:31.482Z,57.30
2018-07-20T18:13:00.102Z,57.50
2018-07-20T18:15:28.698Z,58.10
2018-07-20T18:17:57.395Z,58.20
2018-07-20T18:20:36.447Z,58.80
2018-07-20T18:23:05.350Z,59.30
2018-07-20T18:25:33.991Z,59.90
2018-07-20T18:28:02.726Z,60.30
2018-07-20T18:30:31.349Z,61.00
2018-07-20T18:35:54.433Z,61.90
2018-07-20T18:38:24.481Z,62.20
2018-07-20T18:40:54.354Z,62.50
2018-07-20T18:43:24.220Z,62.90
2018-07-20T18:45:54.115Z,63.00
2018-07-20T18:48:24.065Z,62.90
2018-07-20T18:50:54.028Z,63.10
2018-07-20T18:53:23.845Z,63.40
2018-07-20T18:55:55.773Z,63.50
2018-07-20T18:58:25.843Z,63.70
2018-07-20T19:00:55.914Z,63.60
2018-07-20T19:03:25.360Z,63.90
2018-07-20T19:05:59.187Z,63.90
2018-07-20T19:08:28.101Z,64.10
2018-07-20T19:10:59.932Z,64.10
2018-07-20T19:13:30.033Z,64.20
2018-07-20T19:16:00.465Z,64.30
2018-07-20T19:18:32.257Z,64.60
2018-07-20T19:21:02.169Z,65.00
2018-07-20T19:23:31.126Z,65.00
2018-07-20T19:26:01.032Z,65.00
2018-07-20T19:28:31.011Z,65.20
2018-07-20T19:31:01.053Z,65.20
2018-07-20T19:33:31.781Z,65.30
2018-07-20T19:36:08.407Z,65.90
2018-07-20T19:38:38.684Z,65.60
2018-07-20T19:41:16.311Z,66.00
2018-07-20T19:43:46.472Z,66.60
2018-07-20T19:46:16.263Z,66.60
2018-07-20T19:48:46.561Z,66.80
2018-07-20T19:51:15.944Z,66.50
2018-07-20T19:53:45.580Z,66.50
2018-07-20T19:56:15.023Z,66.30
2018-07-20T19:58:45.075Z,67.30
2018-07-20T20:01:14.730Z,67.70
2018-07-20T20:03:44.489Z,68.10
2018-07-20T20:06:13.167Z,68.00
2018-07-20T20:08:42.994Z,68.50
2018-07-20T20:11:13.031Z,68.90
2018-07-20T20:13:41.696Z,69.70
2018-07-20T20:16:10.782Z,69.80
2018-07-20T20:18:39.462Z,69.90
2018-07-20T20:21:09.021Z,69.50
2018-07-20T20:23:37.668Z,69.60
2018-07-20T20:26:07.000Z,69.50
2018-07-20T20:28:39.659Z,70.20
2018-07-20T20:31:08.760Z,70.30
2018-07-20T20:33:37.785Z,69.80
2018-07-20T20:36:06.549Z,69.80
2018-07-20T20:38:35.176Z,70.10
2018-07-20T20:41:03.894Z,70.10
2018-07-20T20:43:32.514Z,71.20
2018-07-20T20:46:01.169Z,73.60
2018-07-20T20:48:30.863Z,72.80
2018-07-20T20:50:59.490Z,73.20
2018-07-20T20:53:28.108Z,72.90
2018-07-20T20:55:56.753Z,72.30
2018-07-20T20:58:25.770Z,72.20
2018-07-20T21:00:54.592Z,72.40
2018-07-20T21:03:24.097Z,72.40
2018-07-20T21:05:53.131Z,72.90
2018-07-20T21:08:21.913Z,73.40
2018-07-20T21:10:51.270Z,72.60
2018-07-20T21:13:20.000Z,72.60
2018-07-20T21:15:48.652Z,73.00
2018-07-20T21:18:17.309Z,73.40
2018-07-20T21:20:46.005Z,73.70
2018-07-20T21:23:20.989Z,73.80
2018-07-20T21:25:49.878Z,74.00
2018-07-20T21:28:19.391Z,73.80
2018-07-20T21:30:48.153Z,74.30
2018-07-20T21:33:16.881Z,74.30
2018-07-20T21:35:45.740Z,74.80
2018-07-20T21:38:14.540Z,75.00
2018-07-20T21:40:43.237Z,74.90
2018-07-20T21:43:11.926Z,74.90
2018-07-20T21:45:40.589Z,75.80
2018-07-20T21:48:09.312Z,76.80
2018-07-20T21:50:37.956Z,77.20
2018-07-20T21:53:06.595Z,77.10
2018-07-20T21:55:35.308Z,77.00
2018-07-20T21:58:03.968Z,77.10
2018-07-20T22:00:32.636Z,77.10
2018-07-20T22:03:01.305Z,77.00
2018-07-20T22:05:29.978Z,77.20
2018-07-20T22:07:58.641Z,78.00
2018-07-20T22:10:27.274Z,77.90
2018-07-20T22:12:55.926Z,78.20
2018-07-20T22:15:24.531Z,78.40
2018-07-20T22:17:53.181Z,78.30
2018-07-20T22:20:21.878Z,78.20
2018-07-20T22:22:50.499Z,78.70
2018-07-20T22:25:19.155Z,80.00
2018-07-20T22:27:47.840Z,80.60
2018-07-20T22:30:16.425Z,81.00
2018-07-20T22:32:45.050Z,81.10
2018-07-20T22:35:13.698Z,81.10
2018-07-20T22:37:42.350Z,80.70
2018-07-20T22:40:10.954Z,80.30
2018-07-20T22:42:39.610Z,80.80
2018-07-20T22:45:08.311Z,81.00
2018-07-20T22:47:37.025Z,81.30
2018-07-20T22:50:13.794Z,81.30
2018-07-20T22:52:43.781Z,81.00
2018-07-20T22:55:12.402Z,81.30
2018-07-20T22:57:41.025Z,81.50
2018-07-20T23:00:09.709Z,81.40
2018-07-20T23:02:38.346Z,81.50
2018-07-20T23:05:07.145Z,82.20
2018-07-20T23:07:35.785Z,82.60
2018-07-20T23:10:04.746Z,82.90
2018-07-20T23:12:33.500Z,82.80
2018-07-20T23:15:02.165Z,82.70
2018-07-20T23:17:30.757Z,82.90
2018-07-20T23:19:59.493Z,83.40
2018-07-20T23:22:28.134Z,83.40
2018-07-20T23:24:56.889Z,83.40
2018-07-20T23:27:25.615Z,83.20
2018-07-20T23:29:54.270Z,83.50
2018-07-20T23:32:22.934Z,83.00
2018-07-20T23:34:51.557Z,82.70
2018-07-20T23:37:20.188Z,82.50
2018-07-20T23:39:48.833Z,82.60
2018-07-20T23:42:17.476Z,82.70
2018-07-20T23:44:46.270Z,82.60
2018-07-20T23:47:14.951Z,82.80
2018-07-20T23:49:43.721Z,82.80
2018-07-20T23:52:12.429Z,82.70
2018-07-20T23:54:41.114Z,82.70
2018-07-20T23:57:09.864Z,82.30
2018-07-20T23:59:38.508Z,82.50
